Airport View

Enter AWOS ICAO identifier for current METAR.

ex. KFNL

KFLY 101455Z AUTO 35012G18KT 10SM CLR 19/04 A3027 RMK AO2 T01880041

10 Aug 2020 15:24

Frequency: 118.450

Phone: 719-683-5371

Other Area AWOS: KCOS - KAFF - KMNH - KFCS

TAF KCOS 101123Z 1012/1112 33010G20KT P6SM SCT140 FM101700 04012KT P6SM SCT140 FM102000 07012KT P6SM SCT100 SCT200 FM102200 13012KT P6SM VCTS SCT080CB BKN150 FM110100 09012KT P6SM SCT100 BKN150